Time;durP1;ratioP1;P1;durP2;ratioP2;P2;SDS_P1;SDS_P2;PMS_P1;PMS_P2;Temp;Humidity;BMP_temperature;BMP_pressure;BME280_temperature;BME280_humidity;BME280_pressure;Samples;Min_cycle;Max_cycle;Signal;HPM_P1;HPM_P2
2022/12/11 10:28:50;;;;;;;35.03;21.33;;;;;;;0.72;100.00;100958.06;5310036;27;20456;-74
2022/12/11 10:31:37;;;;;;;34.77;21.20;;;;;;;0.70;100.00;100947.78;5307371;28;20126;-76
2022/12/11 10:34:36;;;;;;;29.53;19.03;;;;;;;0.70;100.00;100942.63;5306824;28;20546;-76
2022/12/11 10:37:07;;;;;;;28.67;17.53;;;;;;;0.67;100.00;100937.53;5301271;28;20046;-75
2022/12/11 10:39:39;;;;;;;29.53;19.47;;;;;;;0.72;100.00;100948.59;5308754;28;20043;-73
2022/12/11 10:42:18;;;;;;;28.27;18.07;;;;;;;0.83;100.00;100948.44;5305444;28;20073;-77
2022/12/11 10:45:01;;;;;;;31.80;19.93;;;;;;;0.65;100.00;100928.97;5305704;28;20035;-79
2022/12/11 10:47:32;;;;;;;30.07;18.67;;;;;;;0.80;100.00;100945.06;5307752;28;20402;-75
2022/12/11 10:50:04;;;;;;;29.57;19.70;;;;;;;0.87;100.00;100938.06;5307637;28;20042;-75
2022/12/11 10:52:43;;;;;;;34.10;19.53;;;;;;;0.80;100.00;100917.50;5309059;28;20027;-77
2022/12/11 10:55:24;;;;;;;30.80;19.40;;;;;;;0.76;100.00;100913.31;5307909;28;20035;-73
2022/12/11 10:58:01;;;;;;;29.13;18.23;;;;;;;1.00;100.00;100928.34;5307682;28;20036;-74
2022/12/11 11:00:40;;;;;;;27.47;18.77;;;;;;;1.01;100.00;100924.91;5306526;28;20140;-73
2022/12/11 11:03:21;;;;;;;31.07;18.67;;;;;;;1.02;100.00;100916.28;5310819;28;20103;-77
2022/12/11 11:06:04;;;;;;;26.87;16.77;;;;;;;1.13;100.00;100929.00;5303503;28;20024;-79
2022/12/11 11:08:47;;;;;;;29.53;18.00;;;;;;;1.15;100.00;100922.91;5302200;28;20033;-75
2022/12/11 11:11:35;;;;;;;32.10;19.60;;;;;;;1.05;100.00;100924.81;5309785;28;20023;-80
2022/12/11 11:14:17;;;;;;;28.73;19.20;;;;;;;1.09;100.00;100917.88;5299289;28;20023;-74
2022/12/11 11:16:50;;;;;;;31.80;19.50;;;;;;;1.20;100.00;100915.09;5309806;28;20073;-76
2022/12/11 11:19:30;;;;;;;25.63;17.63;;;;;;;1.09;100.00;100902.41;5299168;28;20390;-74
2022/12/11 11:22:18;;;;;;;35.17;20.80;;;;;;;1.18;100.00;100911.69;5333298;27;20031;-76
2022/12/11 11:24:57;;;;;;;29.70;19.60;;;;;;;1.32;100.00;100914.88;5300187;28;20085;-73
2022/12/11 11:27:34;;;;;;;33.00;19.33;;;;;;;1.30;100.00;100914.03;5303835;28;20123;-74
2022/12/11 11:30:18;;;;;;;31.77;18.90;;;;;;;1.38;100.00;100921.59;5299148;28;20062;-75
2022/12/11 11:32:54;;;;;;;29.87;18.53;;;;;;;1.33;100.00;100913.09;5312202;28;20332;-75
2022/12/11 11:35:28;;;;;;;30.90;19.23;;;;;;;1.38;100.00;100903.53;5293513;28;20021;-75
2022/12/11 11:38:03;;;;;;;;;;;;;;;1.53;100.00;100906.69;5304063;28;20032;-71
2022/12/11 11:40:37;;;;;;;;;;;;;;;1.61;100.00;100914.28;5293971;28;19977;-75
2022/12/11 11:43:28;;;;;;;;;;;;;;;1.59;100.00;100906.56;5300592;28;19947;-77
2022/12/11 11:45:59;;;;;;;;;;;;;;;1.65;100.00;100906.44;5284788;28;19915;-73
2022/12/11 11:48:36;;;;;;;;;;;;;;;1.76;100.00;100906.19;5298388;28;20573;-77
2022/12/11 11:51:14;;;;;;;;;;;;;;;1.78;100.00;100904.44;5284427;28;19915;-77
2022/12/11 11:53:47;;;;;;;;;;;;;;;1.83;100.00;100899.19;5288737;28;19917;-75
2022/12/11 11:56:21;;;;;;;;;;;;;;;1.89;100.00;100899.03;5300168;28;19912;-79
2022/12/11 11:58:59;;;;;;;;;;;;;;;1.97;100.00;100890.28;5289242;28;20279;-75
2022/12/11 12:01:31;;;;;;;;;;;;;;;1.99;100.00;100893.66;5293255;28;19924;-75
2022/12/11 12:04:03;;;;;;;;;;;;;;;2.03;100.00;100892.69;5294229;28;19973;-76
2022/12/11 12:06:40;;;;;;;;;;;;;;;2.03;100.00;100896.13;5291831;28;19970;-75
2022/12/11 12:09:30;;;;;;;;;;;;;;;2.04;100.00;100891.84;5284200;28;19912;-75
2022/12/11 12:12:10;;;;;;;;;;;;;;;2.03;100.00;100892.69;5298592;28;19951;-76
2022/12/11 12:14:47;;;;;;;;;;;;;;;2.05;100.00;100890.94;5285644;28;19976;-74
2022/12/11 12:17:19;;;;;;;;;;;;;;;2.07;100.00;100883.13;5301778;28;19908;-74
2022/12/11 12:19:51;;;;;;;;;;;;;;;2.05;100.00;100875.44;5286773;28;20361;-78
2022/12/11 12:22:23;;;;;;;;;;;;;;;2.07;100.00;100868.50;5301129;28;19912;-72
2022/12/11 12:25:01;;;;;;;;;;;;;;;2.05;100.00;100873.72;5296147;28;19923;-76
2022/12/11 12:27:44;;;;;;;;;;;;;;;2.00;100.00;100874.69;5298664;28;19916;-74
2022/12/11 12:30:16;;;;;;;;;;;;;;;2.01;100.00;100874.66;5313544;27;20376;-74
2022/12/11 12:32:59;;;;;;;;;;;;;;;2.03;100.00;100872.03;5291279;28;20266;-77
2022/12/11 12:35:38;;;;;;;;;;;;;;;2.04;100.00;100871.16;5291925;28;20302;-78
2022/12/11 12:38:17;;;;;;;;;;;;;;;2.12;100.00;100868.38;5296720;28;20944;-76
2022/12/11 12:40:51;;;;;;;;;;;;;;;2.11;100.00;100864.13;5293608;28;19923;-81
2022/12/11 12:43:28;;;;;;;;;;;;;;;2.16;100.00;100876.00;5287536;28;19916;-71
2022/12/11 12:45:59;;;;;;;;;;;;;;;2.26;100.00;100870.63;5290642;28;20671;-72
2022/12/11 12:48:31;;;;;;;;;;;;;;;2.12;100.00;100864.06;5292012;28;19916;-74
2022/12/11 12:51:03;;;;;;;;;;;;;;;2.13;100.00;100862.34;5290590;28;19927;-73
2022/12/11 12:53:35;;;;;;;;;;;;;;;2.15;100.00;100865.72;5291515;28;20046;-74
2022/12/11 12:56:07;;;;;;;;;;;;;;;2.16;100.00;100868.25;5292592;28;19973;-75
2022/12/11 12:58:38;;;;;;;;;;;;;;;2.17;100.00;100861.38;5291373;28;19916;-76
2022/12/11 13:01:12;;;;;;;;;;;;;;;2.22;100.00;100864.69;5288143;28;19997;-75
2022/12/11 13:03:52;;;;;;;;;;;;;;;2.22;100.00;100866.41;5290533;28;19932;-76
2022/12/11 13:06:30;;;;;;;;;;;;;;;2.21;100.00;100862.13;5289013;28;19969;-76
2022/12/11 13:09:13;;;;;;;;;;;;;;;2.26;100.00;100866.31;5289173;28;19970;-81
2022/12/11 13:11:46;;;;;;;;;;;;;;;2.21;100.00;100868.16;5290048;28;20027;-72
2022/12/11 13:14:17;;;;;;;;;;;;;;;2.19;100.00;100867.34;5285308;28;19923;-78
2022/12/11 13:16:49;;;;;;;;;;;;;;;2.21;100.00;100867.31;5290620;28;20282;-72
2022/12/11 13:19:27;;;;;;;;;;;;;;;2.20;100.00;100866.44;5292175;28;19965;-83
2022/12/11 13:22:13;;;;;;;;;;;;;;;2.22;100.00;100861.25;5290633;28;19916;-73
2022/12/11 13:24:45;;;;;;;;;;;;;;;2.26;100.00;100860.28;5290505;28;19920;-72
2022/12/11 13:27:28;;;;;;;;;;;;;;;2.23;100.00;100863.81;5288224;28;19930;-72
2022/12/11 13:30:04;;;;;;;;;;;;;;;2.20;100.00;100869.03;5288693;28;19968;-72
2022/12/11 13:32:35;;;;;;;;;;;;;;;2.20;100.00;100870.78;5286541;28;19908;-75
2022/12/11 13:35:13;;;;;;;;;;;;;;;2.21;100.00;100865.59;5288430;28;20370;-72
2022/12/11 13:37:46;;;;;;;;;;;;;;;2.22;100.00;100866.41;5289537;28;19916;-80
2022/12/11 13:40:24;;;;;;;;;;;;;;;2.22;100.00;100871.56;5288426;28;19920;-78
2022/12/11 13:42:58;;;;;;;;;;;;;;;2.20;100.00;100863.03;5287499;28;19969;-71
2022/12/11 13:45:43;;;;;;;;;;;;;;;2.22;100.00;100871.56;5286745;28;19923;-72
2022/12/11 13:48:20;;;;;;;;;;;;;;;2.22;100.00;100869.84;5285331;28;19923;-72
2022/12/11 13:50:53;;;;;;;;;;;;;;;2.21;100.00;100877.66;5286774;28;19922;-71
2022/12/11 13:53:24;;;;;;;;;;;;;;;2.22;100.00;100874.16;5285307;28;19932;-72
2022/12/11 13:55:56;;;;;;;;;;;;;;;2.19;100.00;100875.09;5284284;28;19958;-74
2022/12/11 13:58:28;;;;;;;;;;;;;;;2.16;100.00;100870.84;5287497;28;19920;-73
2022/12/11 14:01:03;;;;;;;;;;;;;;;2.17;100.00;100882.03;5287622;28;19924;-73
2022/12/11 14:03:34;;;;;;;;;;;;;;;2.12;100.00;100871.81;5287091;28;19924;-84
2022/12/11 14:06:09;;;;;;;;;;;;;;;2.12;100.00;100882.16;5286405;28;19947;-71
2022/12/11 14:08:42;;;;;;;;;;;;;;;2.16;100.00;100881.19;5288768;28;19931;-78
2022/12/11 14:11:20;;;;;;;;;;;;;;;2.12;100.00;100883.88;5286944;28;20038;-76
2022/12/11 14:13:51;;;;;;;;;;;;;;;2.11;100.00;100885.59;5287037;28;19920;-72
2022/12/11 14:16:23;;;;;;;;;;;;;;;2.11;100.00;100884.78;5289242;28;19923;-74
2022/12/11 14:18:58;;;;;;;;;;;;;;;2.09;100.00;100877.06;5286912;28;19924;-72
2022/12/11 14:21:29;;;;;;;;;;;;;;;2.13;100.00;100878.66;5288240;28;20579;-79
2022/12/11 14:24:02;;;;;;;;;;;;;;;2.12;100.00;100878.72;5287261;28;20005;-76
2022/12/11 14:26:36;;;;;;;;;;;;;;;2.11;100.00;100882.19;5286920;28;19920;-75
2022/12/11 14:29:22;;;;;;;;;;;;;;;2.06;100.00;100887.44;5286153;28;19980;-76
2022/12/11 14:31:53;;;;;;;;;;;;;;;2.08;100.00;100888.28;5283881;28;19924;-81
2022/12/11 14:34:33;;;;;;;;;;;;;;;2.10;100.00;100886.50;5287466;28;19931;-74
2022/12/11 14:37:05;;;;;;;;;;;;;;;2.08;100.00;100883.09;5287963;28;19920;-72
2022/12/11 14:39:39;;;;;;;;;;;;;;;2.06;100.00;100892.63;5287689;28;19924;-78
2022/12/11 14:42:10;;;;;;;;;;;;;;;2.06;100.00;100890.03;5285180;28;19927;-77
2022/12/11 14:44:47;;;;;;;;;;;;;;;1.99;100.00;100897.09;5286180;28;19965;-75
2022/12/11 14:47:24;;;;;;;;;;;;;;;2.04;100.00;100895.25;5285711;28;19999;-73
2022/12/11 14:49:57;;;;;;;;;;;;;;;1.98;100.00;100900.56;5286318;28;19924;-75
2022/12/11 14:52:35;;;;;;;;;;;;;;;1.92;100.00;100901.53;5285862;28;20310;-77
2022/12/11 14:55:11;;;;;;;;;;;;;;;1.96;100.00;100897.16;5285246;28;20052;-78
2022/12/11 14:57:45;;;;;;;;;;;;;;;1.95;100.00;100892.88;5287531;28;19916;-73
2022/12/11 15:00:20;;;;;;;;;;;;;;;1.92;100.00;100898.97;5287509;28;19972;-75
2022/12/11 15:02:59;;;;;;;;;;;;;;;1.88;100.00;100899.06;5287324;28;20378;-73
2022/12/11 15:05:31;;;;;;;;;;;;;;;1.92;100.00;100909.28;5286014;28;19969;-74
2022/12/11 15:08:09;;;;;;;;;;;;;;;1.91;100.00;100906.75;5285119;28;19928;-76
2022/12/11 15:10:58;;;;;;;;;;;;;;;1.85;100.00;100910.31;5285299;28;19923;-77
2022/12/11 15:13:30;;;;;;;;;;;;;;;1.82;100.00;100907.78;5283157;28;19927;-71
2022/12/11 15:16:02;;;;;;;;;;;;;;;1.79;100.00;100908.72;5287286;28;20263;-75
2022/12/11 15:18:35;;;;;;;;;;;;;;;1.77;100.00;100907.06;5286836;28;19924;-75
2022/12/11 15:21:11;;;;;;;;;;;;;;;1.77;100.00;100912.22;5289317;28;19916;-76
2022/12/11 15:23:52;;;;;;;;;;;;;;;1.80;100.00;100904.41;5290172;28;19924;-75
2022/12/11 15:26:37;;;;;;;;;;;;;;;1.84;100.00;100905.19;5291576;28;19912;-75
2022/12/11 15:29:27;;;;;;;;;;;;;;;1.75;100.00;100904.50;5290238;28;20920;-77
2022/12/11 15:32:07;;;;;;;;;;;;;;;1.74;100.00;100907.97;5289689;28;19924;-72
2022/12/11 15:34:43;;;;;;;;;;;;;;;1.72;100.00;100906.31;5291816;28;20892;-76
2022/12/11 15:37:23;;;;;;;;;;;;;;;1.72;100.00;100907.16;5287871;28;19916;-72
2022/12/11 15:39:55;;;;;;;;;;;;;;;1.73;100.00;100916.59;5289294;28;20019;-72
2022/12/11 15:42:30;;;;;;;;;;;;;;;1.72;100.00;100912.31;5289837;28;19916;-76
2022/12/11 15:45:04;;;;;;;;;;;;;;;1.75;100.00;100912.25;5289892;28;19916;-79
2022/12/11 15:47:35;;;;;;;;;;;;;;;1.69;100.00;100918.38;5289175;28;19920;-76
2022/12/11 15:50:29;;;;;;;;;;;;;;;1.61;100.00;100914.28;5288782;28;20514;-71
2022/12/11 15:53:00;;;;;;;;;;;;;;;1.61;100.00;100916.84;5281603;28;19922;-71
2022/12/11 15:55:33;;;;;;;;;;;;;;;1.58;100.00;100925.53;5287277;28;20503;-80
2022/12/11 15:58:07;;;;;;;;;;;;;;;1.55;100.00;100912.69;5289058;28;19923;-72
2022/12/11 16:00:38;;;;;;;;;;;;;;;1.57;100.00;100924.66;5288029;28;20411;-76
2022/12/11 16:03:11;;;;;;;;;;;;;;;1.49;100.00;100915.38;5287975;28;19915;-73
2022/12/11 16:05:43;;;;;;;;;;;;;;;1.41;100.00;100918.13;5287042;28;19920;-72
2022/12/11 16:08:15;;;;;;;;;;;;;;;1.39;100.00;100919.88;5289983;28;19924;-76
2022/12/11 16:10:47;;;;;;;;;;;;;;;1.42;100.00;100920.69;5288382;28;19922;-73
2022/12/11 16:13:18;;;;;;;;;;;;;;;1.37;100.00;100917.34;5288610;28;19919;-78
2022/12/11 16:15:50;;;;;;;;;;;;;;;1.36;100.00;100919.97;5288158;28;20518;-76
2022/12/11 16:18:22;;;;;;;;;;;;;;;1.39;100.00;100925.06;5288480;28;19931;-72
2022/12/11 16:20:53;;;;;;;;;;;;;;;1.39;100.00;100920.75;5285422;28;19997;-69
2022/12/11 16:23:24;;;;;;;;;;;;;;;1.43;100.00;100922.38;5286854;28;20615;-74
2022/12/11 16:25:55;;;;;;;;;;;;;;;1.43;100.00;100918.97;5283071;28;19926;-73
2022/12/11 16:28:26;;;;;;;;;;;;;;;1.36;100.00;100913.06;5280121;28;19924;-77
2022/12/11 16:30:58;;;;;;;;;;;;;;;1.38;100.00;100910.47;5281218;28;19919;-77
2022/12/11 16:33:29;;;;;;;;;;;;;;;1.40;100.00;100921.56;5286112;28;19924;-79
2022/12/11 16:36:00;;;;;;;;;;;;;;;1.29;100.00;100909.75;5286025;28;20358;-81
2022/12/11 16:38:31;;;;;;;;;;;;;;;1.28;100.00;100910.63;5288374;28;19943;-75
2022/12/11 16:41:03;;;;;;;;;;;;;;;1.33;100.00;100913.09;5286954;28;19931;-85
2022/12/11 16:43:34;;;;;;;;;;;;;;;1.36;100.00;100910.50;5284313;28;19972;-73
2022/12/11 16:46:05;;;;;;;;;;;;;;;1.40;100.00;100912.09;5288241;28;20394;-77
2022/12/11 16:48:36;;;;;;;;;;;;;;;1.39;100.00;100909.56;5288249;28;19923;-82
2022/12/11 16:51:07;;;;;;;;;;;;;;;1.32;100.00;100914.00;5288043;28;19920;-77
2022/12/11 16:53:39;;;;;;;;;;;;;;;1.37;100.00;100907.03;5288287;28;19920;-74
2022/12/11 16:56:10;;;;;;;;;;;;;;;1.39;100.00;100906.97;5288015;28;19981;-77
2022/12/11 16:58:42;;;;;;;;;;;;;;;1.30;100.00;100911.47;5286202;28;19924;-77
2022/12/11 17:01:14;;;;;;;;;;;;;;;1.28;100.00;100902.88;5283869;28;19966;-74
2022/12/11 17:03:45;;;;;;;;;;;;;;;1.35;100.00;100911.34;5285634;28;19924;-72
2022/12/11 17:06:17;;;;;;;;;;;;;;;1.39;100.00;100899.25;5287161;28;20309;-76
2022/12/11 17:08:48;;;;;;;;;;;;;;;1.42;100.00;100905.19;5297791;28;19966;-76
2022/12/11 17:11:23;;;;;;;;;;;;;;;1.31;100.00;100897.66;5279023;28;20011;-77
2022/12/11 17:13:56;;;;;;;;;;;;;;;1.32;100.00;100898.53;5286022;28;19994;-80
2022/12/11 17:16:29;;;;;;;;;;;;;;;1.28;100.00;100902.03;5282696;28;19974;-80
2022/12/11 17:19:01;;;;;;;;;;;;;;;1.05;100.00;100906.75;5284242;28;19919;-75
2022/12/11 17:21:33;;;;;;;;;;;;;;;1.07;100.00;100901.56;5287378;28;19916;-77
2022/12/11 17:24:04;;;;;;;;;;;;;;;0.98;100.00;100902.59;5282850;28;19918;-75
2022/12/11 17:26:37;;;;;;;;;;;;;;;0.98;100.00;100909.50;5278636;28;20482;-75
2022/12/11 17:29:10;;;;;;;;;;;;;;;1.03;100.00;100899.94;5288475;28;20386;-75
2022/12/11 17:31:41;;;;;;;;;;;;;;;1.10;100.00;100909.25;5285633;28;19916;-74
2022/12/11 17:34:13;;;;;;;;;;;;;;;1.12;100.00;100907.50;5287452;28;20255;-70
2022/12/11 17:36:45;;;;;;;;;;;;;;;1.05;100.00;100905.91;5287982;28;19916;-74
2022/12/11 17:39:16;;;;;;;;;;;;;;;1.17;100.00;100905.66;5296709;28;19916;-75
2022/12/11 17:41:47;;;;;;;;;;;;;;;1.06;100.00;100907.63;5289227;28;19923;-75
2022/12/11 17:44:18;;;;;;;;;;;;;;;1.10;100.00;100900.69;5280262;28;19943;-77
2022/12/11 17:46:50;;;;;;;;;;;;;;;1.14;100.00;100903.16;5287529;28;20019;-76
2022/12/11 17:49:21;;;;;;;;;;;;;;;1.08;100.00;100905.88;5286561;28;19947;-78
2022/12/11 17:51:54;;;;;;;;;;;;;;;1.08;100.00;100901.53;5288213;28;19923;-90
2022/12/11 17:54:25;;;;;;;;;;;;;;;0.89;100.00;100897.63;5287832;28;19920;-85
2022/12/11 17:56:56;;;;;;;;;;;;;;;0.70;100.00;100906.53;5288591;28;19946;-82
2022/12/11 17:59:28;;;;;;;;;;;;;;;0.68;100.00;100908.28;5292420;28;19912;-73
2022/12/11 18:01:59;;;;;;;;;;;;;;;0.64;100.00;100909.22;5291192;28;19970;-74
2022/12/11 18:04:30;;;;;;;;;;;;;;;0.63;100.00;100912.66;5292483;28;19927;-76
2022/12/11 18:07:01;;;;;;;;;;;;;;;0.57;100.00;100911.06;5283556;28;19963;-72
2022/12/11 18:09:32;;;;;;;;;;;;;;;0.57;100.00;100907.63;5284507;28;19927;-78
2022/12/11 18:12:04;;;;;;;;;;;;;;;0.45;100.00;100909.53;5292820;28;19916;-76
2022/12/11 18:14:35;;;;;;;;;;;;;;;0.43;100.00;100906.13;5278716;28;19923;-78
2022/12/11 18:17:06;;;;;;;;;;;;;;;0.49;100.00;100910.31;5286753;28;21019;-80
2022/12/11 18:19:38;;;;;;;;;;;;;;;0.48;100.00;100909.47;5285429;28;20393;-77
2022/12/11 18:22:09;;;;;;;;;;;;;;;0.50;100.00;100908.59;5281998;28;19920;-72
2022/12/11 18:24:40;;;;;;;;;;;;;;;0.56;100.00;100908.50;5287882;28;19927;-72
2022/12/11 18:27:13;;;;;;;;;;;;;;;0.62;100.00;100910.97;5282269;28;20765;-76
2022/12/11 18:29:44;;;;;;;;;;;;;;;0.65;100.00;100905.75;5283775;28;19931;-82
2022/12/11 18:32:15;;;;;;;;;;;;;;;0.76;100.00;100904.72;5286229;28;19933;-74
2022/12/11 18:34:46;;;;;;;;;;;;;;;0.72;100.00;100902.19;5287512;28;19927;-72
2022/12/11 18:37:18;;;;;;;;;;;;;;;0.64;100.00;100901.50;5283228;28;19924;-71
2022/12/11 18:39:49;;;;;;;;;;;;;;;0.62;100.00;100898.09;5287670;28;20028;-75
2022/12/11 18:42:20;;;;;;;;;;;;;;;0.67;100.00;100901.44;5289418;28;20003;-74
2022/12/11 18:44:51;;;;;;;;;;;;;;;0.63;100.00;100902.34;5289984;28;19951;-74
2022/12/11 18:47:23;;;;;;;;;;;;;;;0.47;100.00;100897.47;5281766;28;19985;-83
2022/12/11 18:49:54;;;;;;;;;;;;;;;0.47;100.00;100902.59;5288808;28;19934;-75
2022/12/11 18:52:25;;;;;;;;;;;;;;;0.44;100.00;100891.50;5290681;28;20358;-74
2022/12/11 18:54:56;;;;;;;;;;;;;;;0.40;100.00;100892.44;5289746;28;19940;-72
2022/12/11 18:57:27;;;;;;;;;;;;;;;0.41;100.00;100886.41;5289065;28;20480;-74
2022/12/11 19:00:06;;;;;;;;;;;;;;;0.43;100.00;100892.38;5288641;28;19960;-77
2022/12/11 19:02:37;;;;;;;;;;;;;;;0.50;100.00;100891.41;5290801;28;20027;-79
2022/12/11 19:05:09;;;;;;;;;;;;;;;0.51;100.00;100905.16;5293377;28;20368;-80
2022/12/11 19:07:40;;;;;;;;;;;;;;;0.42;100.00;100899.25;5293954;28;19934;-80
2022/12/11 19:10:11;;;;;;;;;;;;;;;0.47;100.00;100901.78;5293860;28;19916;-77
2022/12/11 19:12:42;;;;;;;;;;;;;;;0.32;100.00;100892.56;5293563;28;19930;-83
2022/12/11 19:15:14;;;;;;;;;;;;;;;0.32;100.00;100892.56;5292703;28;19916;-72
2022/12/11 19:17:45;;;;;;;;;;;;;;;0.23;100.00;100901.28;5293106;28;19924;-83
2022/12/11 19:20:16;;;;;;;;;;;;;;;0.16;100.00;100894.53;5292013;28;19942;-78
2022/12/11 19:22:48;;;;;;;;;;;;;;;0.12;100.00;100901.47;5289119;28;20355;-77
2022/12/11 19:25:19;;;;;;;;;;;;;;;0.04;100.00;100900.72;5290941;28;19945;-74
2022/12/11 19:27:50;;;;;;;;;;;;;;;0.07;100.00;100900.69;5290447;28;19934;-74
2022/12/11 19:30:22;;;;;;;;;;;;;;;0.15;100.00;100900.56;5291666;28;19923;-81
2022/12/11 19:32:53;;;;;;;;;;;;;;;0.15;100.00;100905.69;5291341;28;19927;-79
2022/12/11 19:35:24;;;;;;;;;;;;;;;0.17;100.00;100902.25;5290918;28;20294;-82
2022/12/11 19:37:55;;;;;;;;;;;;;;;0.13;100.00;100905.72;5294765;28;20484;-84
2022/12/11 19:40:26;;;;;;;;;;;;;;;0.08;100.00;100905.81;5286371;28;19912;-72
2022/12/11 19:42:57;;;;;;;;;;;;;;;0.08;100.00;100899.78;5288225;28;19923;-82
2022/12/11 19:45:29;;;;;;;;;;;;;;;0.08;100.00;100902.38;5295240;28;19919;-83
2022/12/11 19:48:00;;;;;;;;;;;;;;;0.13;100.00;100905.72;5289719;28;19919;-81
2022/12/11 19:50:33;;;;;;;;;;;;;;;0.10;100.00;100906.66;5294165;28;19995;-79
2022/12/11 19:53:05;;;;;;;;;;;;;;;0.15;100.00;100919.44;5294967;28;20286;-82
2022/12/11 19:55:36;;;;;;;;;;;;;;;0.24;100.00;100908.97;5288790;28;19916;-72
2022/12/11 19:58:07;;;;;;;;;;;;;;;0.22;100.00;100913.31;5283954;28;19915;-83
2022/12/11 20:00:39;;;;;;;;;;;;;;;0.24;100.00;100911.56;5279057;28;19935;-76
2022/12/11 20:03:10;;;;;;;;;;;;;;;0.22;100.00;100905.59;5291698;28;19912;-76
2022/12/11 20:05:41;;;;;;;;;;;;;;;0.24;100.00;100910.72;5293964;28;19923;-82
2022/12/11 20:08:13;;;;;;;;;;;;;;;0.25;100.00;100907.25;5292769;28;19942;-79
2022/12/11 20:10:44;;;;;;;;;;;;;;;0.26;100.00;100905.53;5292645;28;20000;-76
2022/12/11 20:13:15;;;;;;;;;;;;;;;0.35;100.00;100915.69;5291222;28;19923;-75
2022/12/11 20:15:46;;;;;;;;;;;;;;;0.42;100.00;100914.72;5292705;28;20228;-80
2022/12/11 20:18:17;;;;;;;;;;;;;;;0.47;100.00;100912.91;5294661;28;20991;-77
2022/12/11 20:20:49;;;;;;;;;;;;;;;0.36;100.00;100907.09;5293169;28;19965;-74
2022/12/11 20:23:20;;;;;;;;;;;;;;;0.33;100.00;100913.13;5292448;28;19922;-82
2022/12/11 20:25:51;;;;;;;;;;;;;;;0.26;100.00;100911.56;5291838;28;20381;-81
2022/12/11 20:28:22;;;;;;;;;;;;;;;0.24;100.00;100913.31;5290814;28;19923;-81
2022/12/11 20:30:54;;;;;;;;;;;;;;;0.17;100.00;100914.25;5290399;28;19917;-78
2022/12/11 20:33:25;;;;;;;;;;;;;;;0.08;100.00;100925.56;5291313;28;20018;-79
2022/12/11 20:35:56;;;;;;;;;;;;;;;0.07;100.00;100918.72;5292568;28;20236;-83
2022/12/11 20:38:27;;;;;;;;;;;;;;;0.08;100.00;100923.84;5292689;28;19920;-81
2022/12/11 20:40:59;;;;;;;;;;;;;;;0.04;100.00;100918.72;5292701;28;19916;-85
2022/12/11 20:43:30;;;;;;;;;;;;;;;0.07;100.00;100921.28;5293223;28;19939;-78
2022/12/11 20:46:03;;;;;;;;;;;;;;;-0.04;100.00;100927.44;5297339;28;20343;-78
2022/12/11 20:48:35;;;;;;;;;;;;;;;-0.02;100.00;100923.09;5297173;28;19930;-75
2022/12/11 20:51:07;;;;;;;;;;;;;;;-0.02;100.00;100924.84;5297910;28;20011;-86
2022/12/11 20:53:38;;;;;;;;;;;;;;;-0.02;100.00;100912.78;5291781;28;19940;-83
2022/12/11 20:56:10;;;;;;;;;;;;;;;0.04;100.00;100918.72;5289471;28;20292;-84
2022/12/11 20:58:42;;;;;;;;;;;;;;;0.09;100.00;100929.81;5292469;28;19917;-82
2022/12/11 21:01:14;;;;;;;;;;;;;;;0.13;100.00;100922.91;5291067;28;19922;-84
2022/12/11 21:03:46;;;;;;;;;;;;;;;0.23;100.00;100927.91;5290178;28;19919;-87
2022/12/11 21:06:21;;;;;;;;;;;;;;;0.28;100.00;100919.25;5287621;28;19912;-84
2022/12/11 21:08:53;;;;;;;;;;;;;;;0.31;100.00;100925.22;5292421;28;19994;-86
2022/12/11 21:11:24;;;;;;;;;;;;;;;0.29;100.00;100931.25;5319472;27;19935;-80
2022/12/11 21:13:55;;;;;;;;;;;;;;;0.23;100.00;100927.91;5289091;28;19915;-82
2022/12/11 21:16:27;;;;;;;;;;;;;;;0.27;100.00;100933.00;5286477;28;19970;-75
2022/12/11 21:18:58;;;;;;;;;;;;;;;0.22;100.00;100935.66;5294053;28;19940;-86
2022/12/11 21:21:30;;;;;;;;;;;;;;;0.26;100.00;100939.91;5287273;28;19916;-85
